Time;durP1;ratioP1;P1;durP2;ratioP2;P2;SDS_P1;SDS_P2;PMS_P1;PMS_P2;Temp;Humidity;BMP_temperature;BMP_pressure;BME280_temperature;BME280_humidity;BME280_pressure;Samples;Min_cycle;Max_cycle;Signal;HPM_P1;HPM_P2
2022/01/23 00:01:52;;;;;;;25.23;10.68;;;;;;;9.24;63.89;103594.69;5141284;28;20928;-45
2022/01/23 00:04:27;;;;;;;22.90;10.43;;;;;;;9.25;63.95;103592.91;5139080;28;20443;-46
2022/01/23 00:07:03;;;;;;;26.15;10.15;;;;;;;9.26;63.90;103591.13;5136063;28;20414;-44
2022/01/23 00:09:35;;;;;;;19.77;9.25;;;;;;;9.27;64.03;103593.69;5150385;28;20541;-45
2022/01/23 00:12:13;;;;;;;20.83;9.45;;;;;;;9.27;63.79;103595.50;5139564;28;20438;-44
2022/01/23 00:17:36;;;;;;;26.33;9.35;;;;;;;9.28;63.84;103591.91;5142596;28;20919;-45
2022/01/23 00:20:12;;;;;;;27.33;9.98;;;;;;;9.29;63.94;103588.34;5134658;28;20415;-50
2022/01/23 00:22:48;;;;;;;26.80;9.75;;;;;;;9.23;63.98;103585.09;5135975;28;20414;-44
2022/01/23 00:31:00;;;;;;;25.95;9.43;;;;;;;9.29;64.02;103588.34;5102815;28;20441;-45
2022/01/23 00:33:33;;;;;;;24.33;8.77;;;;;;;9.23;64.05;103585.09;5140456;28;20434;-48
2022/01/23 00:36:07;;;;;;;20.23;8.75;;;;;;;9.27;64.16;103592.84;5140340;28;20905;-46
2022/01/23 00:38:40;;;;;;;23.42;8.13;;;;;;;9.27;64.18;103593.69;5138141;28;20925;-46
2022/01/23 00:41:12;;;;;;;30.23;9.70;;;;;;;9.28;64.12;103597.19;5144968;28;20436;-48
2022/01/23 00:43:46;;;;;;;21.52;7.45;;;;;;;9.29;64.27;103594.50;5141784;28;20424;-46
2022/01/23 00:46:29;;;;;;;28.35;8.88;;;;;;;9.30;64.17;103597.97;5140382;28;20428;-45
2022/01/23 00:49:25;;;;;;;25.48;8.57;;;;;;;9.30;64.15;103598.84;5136017;28;20422;-48
2022/01/23 00:51:58;;;;;;;28.77;7.45;;;;;;;9.29;64.22;103588.34;5136729;28;20428;-44
2022/01/23 00:54:31;;;;;;;27.48;7.45;;;;;;;9.30;64.18;103592.72;5138629;28;20462;-44
2022/01/23 00:57:04;;;;;;;19.85;6.60;;;;;;;9.27;64.27;103600.75;5141026;28;20461;-47
2022/01/23 00:59:36;;;;;;;26.35;6.47;;;;;;;9.26;64.21;103604.31;5142874;28;20428;-45
2022/01/23 01:02:09;;;;;;;21.17;6.85;;;;;;;9.27;64.27;103600.75;5139405;28;20532;-45
2022/01/23 01:04:41;;;;;;;24.23;5.82;;;;;;;9.24;64.33;103602.59;5141835;28;20426;-48
2022/01/23 01:07:15;;;;;;;18.60;6.25;;;;;;;9.21;64.34;103601.91;5133482;28;22126;-48
2022/01/23 01:09:50;;;;;;;17.55;6.28;;;;;;;9.21;64.47;103597.47;5143208;28;20399;-45
2022/01/23 01:12:27;;;;;;;16.13;6.03;;;;;;;9.25;64.40;103598.19;5143904;28;20433;-45
2022/01/23 01:15:24;;;;;;;20.60;6.57;;;;;;;9.18;64.60;103597.63;5139585;28;20517;-45
2022/01/23 01:32:10;;;;;;;21.35;7.43;;;;;;;9.16;64.84;103610.03;5140601;28;20509;-48
2022/01/23 01:34:48;;;;;;;22.65;6.38;;;;;;;9.13;64.83;103596.97;5144831;28;20414;-48
2022/01/23 01:37:21;;;;;;;14.70;5.93;;;;;;;9.10;64.80;103604.19;5143503;28;20461;-47
2022/01/23 01:39:55;;;;;;;21.70;5.78;;;;;;;9.15;64.84;103604.84;5140339;28;20488;-45
2022/01/23 01:42:27;;;;;;;23.83;6.93;;;;;;;9.16;64.71;103610.03;5142161;28;20822;-46
2022/01/23 01:44:59;;;;;;;18.73;5.40;;;;;;;9.16;64.86;103599.47;5141539;28;20418;-45
2022/01/23 01:47:34;;;;;;;16.10;5.15;;;;;;;9.14;64.63;103595.22;5126966;28;20947;-45
2022/01/23 01:50:08;;;;;;;19.45;4.65;;;;;;;9.18;64.82;103597.63;5149616;28;20443;-44
2022/01/23 01:52:41;;;;;;;19.67;4.53;;;;;;;9.17;64.88;103603.84;5138098;28;20525;-46
2022/01/23 01:55:23;;;;;;;18.40;4.07;;;;;;;9.17;64.90;103595.09;5139986;28;20424;-44
2022/01/23 01:58:02;;;;;;;15.63;4.82;;;;;;;9.17;64.79;103590.66;5137093;28;20440;-45
2022/01/23 02:00:44;;;;;;;13.30;4.32;;;;;;;9.18;64.77;103586.22;5139990;28;20426;-47
2022/01/23 02:08:57;;;;;;;10.88;3.55;;;;;;;9.21;64.77;103604.53;5136035;28;20471;-47
2022/01/23 02:11:50;;;;;;;8.87;3.57;;;;;;;9.21;64.78;103602.75;5143588;28;20534;-44
2022/01/23 02:14:35;;;;;;;9.77;3.55;;;;;;;9.20;64.76;103595.78;5136179;28;20413;-44
2022/01/23 02:17:24;;;;;;;9.27;3.92;;;;;;;9.20;64.84;103601.06;5138316;28;20436;-44
2022/01/23 02:23:02;;;;;;;9.80;3.20;;;;;;;9.06;64.74;103592.94;5142658;28;20425;-44
2022/01/23 02:51:12;;;;;;;12.32;4.78;;;;;;;8.87;64.92;103586.81;5138286;28;20418;-45
2022/01/23 02:54:07;;;;;;;13.43;5.17;;;;;;;8.96;64.91;103591.66;5136362;28;20540;-44
2022/01/23 02:56:44;;;;;;;12.30;4.38;;;;;;;8.97;64.81;103585.47;5144816;28;20398;-44
2022/01/23 02:59:23;;;;;;;11.85;4.50;;;;;;;8.98;64.79;103579.25;5138461;28;20450;-46
2022/01/23 03:02:11;;;;;;;11.73;4.43;;;;;;;8.93;64.72;103576.00;5146045;28;20481;-48
2022/01/23 03:04:51;;;;;;;18.33;5.18;;;;;;;8.90;64.78;103577.00;5156825;28;20462;-45
2022/01/23 03:07:50;;;;;;;15.02;4.68;;;;;;;8.86;64.85;103582.50;5132694;28;20434;-47
2022/01/23 03:10:27;;;;;;;17.23;5.47;;;;;;;8.83;65.00;103580.00;5135600;28;20903;-47
2022/01/23 03:24:36;;;;;;;8.30;3.83;;;;;;;8.64;65.02;103585.22;5139590;28;20424;-48
2022/01/23 03:30:17;;;;;;;5.30;3.50;;;;;;;8.50;65.01;103570.06;5123556;28;20488;-43
2022/01/23 03:32:51;;;;;;;7.07;3.50;;;;;;;8.59;64.89;103582.81;5131726;28;20427;-44
2022/01/23 03:35:24;;;;;;;6.65;3.60;;;;;;;8.50;64.85;103578.81;5141724;28;20513;-44
2022/01/23 03:37:57;;;;;;;6.40;3.65;;;;;;;8.57;65.08;103592.56;5138300;28;20445;-47
2022/01/23 03:40:29;;;;;;;10.52;3.58;;;;;;;8.58;65.03;103596.03;5132702;28;20426;-46
2022/01/23 03:43:10;;;;;;;7.13;3.88;;;;;;;8.57;65.06;103595.19;5144480;28;20823;-45
2022/01/23 03:45:59;;;;;;;7.22;4.25;;;;;;;8.59;65.04;103601.25;5142360;28;20427;-45
2022/01/23 03:51:22;;;;;;;8.20;3.17;;;;;;;8.55;64.79;103586.53;5146177;28;20493;-44
2022/01/23 03:53:55;;;;;;;5.35;2.92;;;;;;;8.62;64.98;103593.22;5134102;28;20435;-44
2022/01/23 03:56:30;;;;;;;7.25;3.13;;;;;;;8.64;64.87;103596.66;5140820;28;20418;-45
2022/01/23 03:59:04;;;;;;;7.82;3.60;;;;;;;8.62;64.96;103587.94;5137854;28;20419;-45
2022/01/23 04:01:37;;;;;;;7.63;3.60;;;;;;;8.67;64.96;103606.16;5140072;28;20515;-44
2022/01/23 04:04:23;;;;;;;8.40;3.97;;;;;;;8.66;64.95;103600.03;5130969;28;20909;-44
2022/01/23 04:06:56;;;;;;;6.25;2.88;;;;;;;8.63;64.96;103594.06;5132192;28;20493;-44
2022/01/23 04:09:28;;;;;;;8.20;3.08;;;;;;;8.60;65.11;103597.69;5142804;28;20496;-44
2022/01/23 04:12:02;;;;;;;5.78;2.95;;;;;;;8.54;65.09;103601.44;5142722;28;20497;-44
2022/01/23 04:14:40;;;;;;;9.20;3.50;;;;;;;8.53;65.08;103604.16;5134542;28;20459;-44
2022/01/23 04:34:19;;;;;;;6.88;3.20;;;;;;;8.41;65.35;103612.59;5132855;28;20430;-44
2022/01/23 04:45:39;;;;;;;7.93;4.93;;;;;;;8.47;65.27;103609.69;5091206;28;20480;-47
2022/01/23 04:59:39;;;;;;;11.88;5.07;;;;;;;8.58;65.11;103606.56;5136737;28;20418;-45
2022/01/23 05:02:33;;;;;;;8.80;5.20;;;;;;;8.61;65.21;103617.84;5146680;28;20950;-48
2022/01/23 05:05:08;;;;;;;10.10;5.57;;;;;;;8.34;65.18;103582.19;5141222;28;20485;-47
2022/01/23 05:07:45;;;;;;;9.03;4.70;;;;;;;8.61;65.17;103615.22;5137810;28;20440;-50
2022/01/23 05:10:18;;;;;;;9.00;4.57;;;;;;;8.62;65.33;103614.28;5145403;28;20425;-48
2022/01/23 05:12:50;;;;;;;11.82;4.50;;;;;;;8.56;65.27;103606.66;5144555;28;20524;-47
2022/01/23 05:15:23;;;;;;;9.60;4.53;;;;;;;8.46;65.19;103602.75;5142453;28;20500;-47
2022/01/23 05:17:55;;;;;;;9.40;4.33;;;;;;;8.34;65.26;103576.91;5142003;28;20489;-49
2022/01/23 05:20:30;;;;;;;6.57;4.63;;;;;;;8.66;65.31;103628.19;5139983;28;20529;-46
2022/01/23 05:23:05;;;;;;;7.85;5.32;;;;;;;8.66;65.14;103625.53;5140406;28;20899;-47
2022/01/23 05:25:38;;;;;;;10.23;5.18;;;;;;;8.70;65.10;103621.84;5142365;28;20430;-47
2022/01/23 05:28:11;;;;;;;9.38;5.30;;;;;;;8.68;65.08;103619.28;5133048;28;20452;-48
2022/01/23 05:30:43;;;;;;;8.30;5.10;;;;;;;8.66;65.23;103618.50;5145711;28;20845;-49
2022/01/23 05:33:16;;;;;;;8.10;5.50;;;;;;;8.65;65.13;103622.06;5140220;28;20434;-46
2022/01/23 05:35:49;;;;;;;13.75;5.97;;;;;;;8.69;65.25;103631.53;5139076;28;20483;-45
2022/01/23 05:38:22;;;;;;;9.10;6.30;;;;;;;8.68;65.18;103624.56;5143256;28;20926;-44
2022/01/23 05:40:57;;;;;;;10.63;6.03;;;;;;;8.67;65.24;103622.84;5139102;28;20396;-45
2022/01/23 05:43:30;;;;;;;12.80;6.05;;;;;;;8.70;65.22;103628.00;5147921;28;20694;-48
2022/01/23 05:46:02;;;;;;;10.88;5.90;;;;;;;8.69;65.15;103623.63;5146234;28;20970;-45
2022/01/23 05:48:35;;;;;;;9.05;5.70;;;;;;;8.72;65.10;103614.72;5145920;28;20420;-49
2022/01/23 05:51:12;;;;;;;8.30;6.00;;;;;;;8.74;65.15;103612.88;5145910;28;20495;-46
2022/01/23 05:53:44;;;;;;;8.50;6.00;;;;;;;8.77;65.07;103607.47;5143909;28;20434;-45
2022/01/23 05:56:17;;;;;;;11.10;6.00;;;;;;;8.80;64.95;103606.50;5149407;28;20420;-46
2022/01/23 05:58:49;;;;;;;10.68;6.63;;;;;;;8.81;64.69;103603.75;5142787;28;20433;-46
2022/01/23 06:01:22;;;;;;;9.63;6.10;;;;;;;8.66;65.11;103576.34;5142656;28;20418;-48
2022/01/23 06:03:54;;;;;;;12.25;6.68;;;;;;;8.83;64.93;103601.06;5145616;28;20418;-45
2022/01/23 06:06:28;;;;;;;9.85;6.93;;;;;;;8.84;65.00;103602.78;5145965;28;20894;-44
2022/01/23 06:09:00;;;;;;;13.90;7.13;;;;;;;8.83;65.12;103608.97;5143290;28;20434;-46
2022/01/23 06:11:33;;;;;;;10.20;7.35;;;;;;;8.82;64.90;103607.25;5134927;28;20979;-44
2022/01/23 06:14:07;;;;;;;11.68;6.82;;;;;;;8.65;65.08;103581.69;5140872;28;20833;-45
2022/01/23 06:16:40;;;;;;;17.63;8.30;;;;;;;8.82;65.05;103609.88;5139036;28;20440;-54
2022/01/23 06:19:12;;;;;;;12.95;8.05;;;;;;;8.83;65.03;103611.63;5147044;28;20577;-44
2022/01/23 06:21:46;;;;;;;16.50;7.43;;;;;;;8.84;64.97;103613.31;5143414;28;20884;-44
2022/01/23 06:24:25;;;;;;;14.45;8.00;;;;;;;8.84;65.07;103613.31;5139390;28;20465;-47
2022/01/23 06:27:00;;;;;;;13.13;7.70;;;;;;;8.83;65.05;103609.84;5137911;28;20898;-45
2022/01/23 06:29:33;;;;;;;9.55;7.10;;;;;;;8.67;65.06;103585.97;5145681;28;20453;-49
2022/01/23 06:32:07;;;;;;;12.73;7.32;;;;;;;8.75;65.10;103598.78;5143256;28;20467;-44
2022/01/23 06:34:39;;;;;;;17.45;8.00;;;;;;;8.82;65.07;103616.00;5146478;28;20433;-47
2022/01/23 06:37:13;;;;;;;13.95;7.50;;;;;;;8.83;65.17;103622.16;5147476;28;20923;-45
2022/01/23 06:39:46;;;;;;;14.35;8.10;;;;;;;8.78;65.04;103610.03;5137409;28;20415;-46
2022/01/23 06:42:18;;;;;;;16.73;8.45;;;;;;;8.84;65.09;103618.59;5147782;28;20955;-44
2022/01/23 06:44:50;;;;;;;14.50;8.10;;;;;;;8.83;65.09;103622.16;5138483;28;20900;-44
2022/01/23 06:47:23;;;;;;;15.57;9.13;;;;;;;8.80;65.18;103622.31;5133942;28;20491;-47
2022/01/23 06:49:55;;;;;;;16.77;10.25;;;;;;;8.78;65.22;103620.56;5137841;28;20920;-43
2022/01/23 06:52:29;;;;;;;18.83;9.18;;;;;;;8.80;65.10;103623.16;5144723;28;20547;-45
2022/01/23 06:55:01;;;;;;;22.73;9.60;;;;;;;8.83;65.13;103628.28;5141323;28;20418;-46
2022/01/23 06:57:35;;;;;;;19.95;9.07;;;;;;;8.85;65.16;103628.19;5138002;28;20420;-48
2022/01/23 07:00:09;;;;;;;19.02;11.57;;;;;;;8.85;65.17;103634.31;5136679;28;20434;-47
2022/01/23 07:02:41;;;;;;;23.38;11.57;;;;;;;8.84;65.10;103629.13;5141035;28;20429;-46
2022/01/23 07:05:14;;;;;;;23.98;10.93;;;;;;;8.84;65.13;103632.63;5144356;28;20422;-44
2022/01/23 07:07:47;;;;;;;26.35;11.32;;;;;;;8.83;65.07;103632.69;5137249;28;20795;-45
2022/01/23 07:10:21;;;;;;;24.10;11.82;;;;;;;8.82;65.20;103636.25;5133104;28;20758;-45
2022/01/23 07:12:53;;;;;;;31.38;11.77;;;;;;;8.83;65.12;103644.09;5144830;28;20410;-49
2022/01/23 07:15:26;;;;;;;20.70;11.05;;;;;;;8.83;65.15;103646.72;5143263;28;20491;-46
2022/01/23 07:17:58;;;;;;;34.92;13.23;;;;;;;8.83;65.19;103646.72;5129651;28;20509;-46
2022/01/23 07:20:31;;;;;;;23.17;12.18;;;;;;;8.81;65.26;103645.06;5138003;28;20430;-45
2022/01/23 07:23:04;;;;;;;23.60;12.18;;;;;;;8.77;65.24;103655.75;5144287;28;20422;-50
2022/01/23 07:25:37;;;;;;;25.23;13.60;;;;;;;8.75;65.31;103660.22;5139329;28;20430;-45
2022/01/23 07:28:13;;;;;;;22.90;12.60;;;;;;;8.63;65.18;103647.59;5144234;28;20500;-47
2022/01/23 07:30:50;;;;;;;22.88;12.95;;;;;;;8.70;65.44;103662.25;5136272;28;20418;-45
2022/01/23 07:33:23;;;;;;;24.35;12.65;;;;;;;8.70;65.43;103670.16;5140650;28;20426;-46
2022/01/23 07:35:55;;;;;;;26.07;12.37;;;;;;;8.70;65.39;103664.88;5143262;28;20428;-45
2022/01/23 07:38:30;;;;;;;31.50;13.80;;;;;;;8.66;65.31;103665.91;5139620;28;20425;-44
2022/01/23 07:41:02;;;;;;;23.63;12.15;;;;;;;8.71;65.39;103676.25;5134885;28;20435;-46
2022/01/23 07:43:34;;;;;;;26.58;12.85;;;;;;;8.72;65.33;103680.59;5141345;28;20423;-45
2022/01/23 07:46:07;;;;;;;21.58;12.57;;;;;;;8.70;65.38;103680.69;5136315;28;20441;-44
2022/01/23 07:48:39;;;;;;;24.73;13.70;;;;;;;8.71;65.41;103687.66;5144558;28;20414;-44
2022/01/23 07:51:12;;;;;;;27.75;13.25;;;;;;;8.70;65.39;103690.34;5147903;28;20418;-44
2022/01/23 07:53:45;;;;;;;28.83;13.77;;;;;;;8.68;65.43;103682.50;5149747;28;20583;-45
2022/01/23 07:56:18;;;;;;;26.23;13.48;;;;;;;8.60;65.37;103663.53;5133318;28;20420;-49
2022/01/23 07:58:50;;;;;;;25.37;14.07;;;;;;;8.71;65.43;103681.53;5125876;28;20862;-48
2022/01/23 08:01:23;;;;;;;25.57;13.60;;;;;;;8.72;65.42;103683.22;5128863;28;20450;-45
2022/01/23 08:03:55;;;;;;;27.92;14.82;;;;;;;8.77;65.36;103686.53;5131509;28;20426;-47
2022/01/23 08:07:09;;;;;;;27.02;13.63;;;;;;;8.80;65.27;103698.72;5125517;28;20424;-43
2022/01/23 08:09:43;;;;;;;25.42;13.10;;;;;;;8.81;65.22;103692.50;5127706;28;20925;-45
2022/01/23 08:12:17;;;;;;;26.43;13.63;;;;;;;8.83;65.36;103696.81;5132093;28;20498;-47
2022/01/23 08:14:49;;;;;;;24.17;12.77;;;;;;;8.85;65.29;103694.06;5139943;28;20439;-47
2022/01/23 08:17:24;;;;;;;24.15;13.10;;;;;;;8.86;65.19;103693.19;5130929;28;20961;-45
2022/01/23 08:19:59;;;;;;;27.15;14.50;;;;;;;8.87;65.27;103697.50;5127140;28;20514;-47
2022/01/23 08:22:33;;;;;;;25.42;14.35;;;;;;;8.87;65.31;103703.63;5144307;28;20418;-46
2022/01/23 08:25:08;;;;;;;28.52;14.77;;;;;;;8.86;65.29;103701.94;5145749;28;20500;-50
2022/01/23 08:27:41;;;;;;;29.75;14.02;;;;;;;8.88;65.30;103699.22;5149670;28;20823;-43
2022/01/23 08:30:14;;;;;;;28.27;14.15;;;;;;;8.68;65.38;103664.06;5142866;28;20432;-44
2022/01/23 08:32:46;;;;;;;28.00;14.57;;;;;;;8.90;65.26;103694.75;5148429;28;20419;-45
2022/01/23 08:35:20;;;;;;;26.85;14.65;;;;;;;8.90;65.37;103694.75;5140961;28;20429;-45
2022/01/23 08:37:52;;;;;;;21.17;13.70;;;;;;;8.82;65.31;103694.22;5146107;28;20494;-46
2022/01/23 08:40:46;;;;;;;25.35;13.57;;;;;;;8.66;65.51;103663.28;5141825;28;20516;-47
2022/01/23 08:43:19;;;;;;;28.52;14.70;;;;;;;8.91;65.36;103707.84;5137665;28;20420;-48
2022/01/23 08:45:52;;;;;;;21.38;13.48;;;;;;;8.94;65.34;103704.22;5126238;28;20507;-48
2022/01/23 08:48:25;;;;;;;21.33;13.70;;;;;;;8.95;65.34;103713.81;5121232;28;20515;-49
2022/01/23 08:50:57;;;;;;;28.30;14.80;;;;;;;8.87;65.44;103708.91;5136047;28;20924;-46
2022/01/23 08:53:29;;;;;;;22.67;13.25;;;;;;;8.91;65.57;103715.75;5127120;28;20491;-47
2022/01/23 08:56:04;;;;;;;21.73;13.30;;;;;;;8.93;65.62;103713.91;5128368;28;20803;-45
2022/01/23 08:58:36;;;;;;;22.77;14.75;;;;;;;8.94;65.65;103714.75;5118684;28;20458;-46
2022/01/23 09:01:09;;;;;;;23.30;14.38;;;;;;;8.98;65.37;103711.03;5126095;28;20430;-46
2022/01/23 09:03:42;;;;;;;26.20;14.93;;;;;;;8.94;65.55;103704.22;5119159;28;20448;-45
2022/01/23 09:06:14;;;;;;;27.77;16.25;;;;;;;9.06;65.45;103711.56;5130266;28;20751;-45
2022/01/23 09:08:47;;;;;;;24.42;15.68;;;;;;;9.07;65.43;103708.00;5133585;28;20502;-49
2022/01/23 09:11:38;;;;;;;31.70;18.15;;;;;;;9.15;65.23;103728.75;5120089;28;20487;-44
2022/01/23 09:14:10;;;;;;;29.23;15.73;;;;;;;9.08;65.35;103695.69;5125817;28;20767;-44
2022/01/23 09:16:44;;;;;;;23.65;14.98;;;;;;;9.19;65.42;103709.22;5129151;28;22182;-44
2022/01/23 09:19:18;;;;;;;24.65;16.02;;;;;;;9.20;65.47;103717.09;5135395;28;20836;-44
2022/01/23 09:21:52;;;;;;;29.13;16.88;;;;;;;9.23;65.46;103710.81;5140350;28;20830;-44
2022/01/23 09:24:27;;;;;;;24.97;16.03;;;;;;;9.28;65.45;103718.50;5124509;28;20486;-45
2022/01/23 09:27:05;;;;;;;28.40;17.02;;;;;;;9.06;65.36;103679.94;5123535;28;20423;-45
2022/01/23 09:29:38;;;;;;;29.52;17.85;;;;;;;9.29;65.52;103714.94;5127082;28;20472;-45
2022/01/23 09:32:13;;;;;;;32.15;17.65;;;;;;;9.31;65.43;103713.09;5135314;28;20511;-51
2022/01/23 09:34:46;;;;;;;27.02;15.45;;;;;;;9.34;65.43;103716.44;5124990;28;20966;-52
2022/01/23 09:37:21;;;;;;;31.95;19.25;;;;;;;9.36;65.26;103708.47;5123811;28;20416;-46
2022/01/23 09:39:53;;;;;;;30.92;18.02;;;;;;;9.45;65.32;103718.59;5125980;28;20496;-48
2022/01/23 09:42:34;;;;;;;32.88;18.52;;;;;;;9.53;65.26;103729.63;5133738;28;20521;-50
2022/01/23 09:45:12;;;;;;;32.03;18.85;;;;;;;9.57;65.07;103736.47;5118664;28;20528;-50
2022/01/23 09:47:45;;;;;;;26.17;17.02;;;;;;;9.55;65.18;103730.41;5146433;28;20479;-46
2022/01/23 09:50:18;;;;;;;31.65;18.65;;;;;;;9.57;65.22;103731.19;5143244;28;20442;-47
2022/01/23 09:52:54;;;;;;;30.98;18.70;;;;;;;9.55;65.22;103738.31;5134655;28;20783;-46
2022/01/23 09:55:29;;;;;;;29.55;18.30;;;;;;;9.57;65.28;103733.84;5131854;28;20456;-48
2022/01/23 09:58:03;;;;;;;31.13;19.05;;;;;;;9.60;65.25;103730.19;5139678;28;20846;-49
2022/01/23 10:00:36;;;;;;;31.63;19.27;;;;;;;9.60;65.31;103746.88;5147316;28;20504;-50
2022/01/23 10:03:08;;;;;;;32.67;19.07;;;;;;;9.64;65.14;103731.75;5130545;28;20508;-47
2022/01/23 10:05:41;;;;;;;34.88;20.00;;;;;;;9.70;65.25;103734.97;5127468;28;20520;-48
2022/01/23 10:08:13;;;;;;;28.48;19.27;;;;;;;9.73;65.20;103738.41;5133587;28;20478;-50
2022/01/23 10:10:51;;;;;;;38.13;21.90;;;;;;;9.78;65.13;103733.72;5133050;28;20459;-45
2022/01/23 10:13:27;;;;;;;28.73;19.23;;;;;;;9.79;65.21;103738.94;5152429;28;20423;-47
2022/01/23 10:16:00;;;;;;;32.40;20.70;;;;;;;9.83;65.17;103735.22;5133099;28;20423;-48
2022/01/23 10:18:32;;;;;;;40.85;21.20;;;;;;;9.88;65.07;103740.31;5137737;28;20477;-50
2022/01/23 10:21:05;;;;;;;37.25;20.35;;;;;;;9.92;65.07;103737.41;5137391;28;20472;-47
2022/01/23 10:23:38;;;;;;;31.00;18.60;;;;;;;9.97;65.08;103729.25;5148548;28;20861;-48
2022/01/23 10:26:10;;;;;;;29.65;19.23;;;;;;;9.99;65.09;103730.06;5139120;28;20428;-46
2022/01/23 10:28:44;;;;;;;32.45;17.88;;;;;;;10.02;65.08;103729.06;5132633;28;20944;-50
2022/01/23 10:31:16;;;;;;;32.35;19.30;;;;;;;10.01;65.11;103728.19;5134453;28;20545;-48
2022/01/23 10:33:50;;;;;;;31.25;18.98;;;;;;;10.07;65.14;103732.34;5147941;28;20844;-51
2022/01/23 10:36:22;;;;;;;32.33;19.50;;;;;;;10.04;65.13;103729.84;5137932;28;20972;-49
2022/01/23 10:39:00;;;;;;;32.58;19.80;;;;;;;10.12;65.05;103731.16;5138678;28;20963;-48
2022/01/23 10:41:47;;;;;;;33.67;18.83;;;;;;;10.15;65.01;103733.63;5130224;28;20517;-50
2022/01/23 10:50:09;;;;;;;26.88;17.60;;;;;;;10.29;64.79;103718.94;5121879;28;20420;-49
2022/01/23 10:52:47;;;;;;;28.98;17.15;;;;;;;10.23;64.59;103703.38;5144029;28;20505;-49
2022/01/23 10:55:32;;;;;;;25.80;17.08;;;;;;;10.36;64.84;103715.06;5130540;28;20424;-49
2022/01/23 10:58:07;;;;;;;33.70;16.27;;;;;;;10.41;64.74;103710.41;5141244;28;20505;-50
2022/01/23 11:00:41;;;;;;;32.50;17.08;;;;;;;10.45;64.67;103714.59;5148032;28;20797;-51
2022/01/23 11:03:17;;;;;;;29.63;18.30;;;;;;;10.43;64.63;103723.50;5140775;28;20861;-48
2022/01/23 11:05:51;;;;;;;31.08;17.88;;;;;;;10.43;64.73;103711.16;5143590;28;20813;-47
2022/01/23 11:08:27;;;;;;;33.30;17.67;;;;;;;10.49;64.62;103704.69;5141581;28;20419;-48
2022/01/23 11:11:03;;;;;;;28.40;17.13;;;;;;;10.50;64.81;103706.41;5138330;28;20420;-47
2022/01/23 11:19:30;;;;;;;27.35;17.17;;;;;;;10.56;64.17;103693.75;5130101;28;20633;-47
2022/01/23 11:22:06;;;;;;;28.60;17.38;;;;;;;10.53;64.50;103688.63;5131998;28;20430;-49
2022/01/23 11:24:42;;;;;;;34.00;17.60;;;;;;;10.53;64.38;103678.06;5146539;28;20885;-47
2022/01/23 11:27:16;;;;;;;32.35;18.17;;;;;;;10.63;64.44;103690.78;5148287;28;20418;-46
2022/01/23 11:30:04;;;;;;;27.50;17.63;;;;;;;10.66;64.35;103688.00;5143418;28;20551;-46
2022/01/23 11:32:41;;;;;;;25.92;17.65;;;;;;;10.68;64.20;103684.31;5129160;28;20428;-47
2022/01/23 11:35:18;;;;;;;30.20;16.80;;;;;;;10.70;64.15;103681.59;5144035;28;20467;-53
2022/01/23 11:37:52;;;;;;;27.30;16.83;;;;;;;10.73;64.19;103690.22;5142854;28;20407;-49
2022/01/23 11:40:40;;;;;;;25.90;16.75;;;;;;;10.63;64.16;103674.94;5136190;28;20485;-50
2022/01/23 11:54:46;;;;;;;34.95;18.17;;;;;;;10.81;63.77;103679.25;5130092;28;20412;-47
2022/01/23 11:57:43;;;;;;;28.00;18.08;;;;;;;10.86;63.67;103671.91;5130847;28;20834;-48
2022/01/23 12:00:24;;;;;;;27.27;17.95;;;;;;;10.85;63.80;103675.50;5133526;28;20515;-48
2022/01/23 12:03:20;;;;;;;28.80;17.00;;;;;;;10.77;63.71;103672.41;5121727;28;20405;-50
2022/01/23 12:06:13;;;;;;;26.20;17.67;;;;;;;10.78;63.67;103674.13;5125046;28;20500;-48
2022/01/23 12:08:45;;;;;;;26.13;16.90;;;;;;;10.92;63.45;103671.56;5130757;28;20543;-50
2022/01/23 12:17:45;;;;;;;34.38;16.48;;;;;;;11.03;63.17;103669.22;5123617;28;20431;-46
2022/01/23 12:20:36;;;;;;;29.52;16.40;;;;;;;11.08;63.07;103667.16;5122409;28;20416;-47
2022/01/23 12:23:10;;;;;;;23.20;15.18;;;;;;;11.07;62.99;103665.47;5133018;28;20433;-47
2022/01/23 12:25:45;;;;;;;29.58;17.23;;;;;;;11.09;63.13;103662.75;5128956;28;20512;-45
2022/01/23 12:28:24;;;;;;;28.70;17.33;;;;;;;11.04;63.07;103660.34;5136755;28;21072;-46
2022/01/23 12:30:59;;;;;;;24.57;14.83;;;;;;;11.05;62.94;103666.47;5128196;28;20502;-45
2022/01/23 12:33:48;;;;;;;29.50;15.10;;;;;;;11.06;62.98;103661.13;5132834;28;20513;-46
2022/01/23 12:36:28;;;;;;;23.10;14.02;;;;;;;11.04;62.82;103649.75;5120540;28;20504;-44
2022/01/23 12:39:19;;;;;;;24.67;14.77;;;;;;;11.08;62.71;103651.28;5127196;28;20500;-45
2022/01/23 12:42:00;;;;;;;19.13;13.67;;;;;;;11.08;62.67;103651.28;5136449;28;20418;-45
2022/01/23 12:44:36;;;;;;;24.48;14.63;;;;;;;11.09;62.69;103652.16;5135467;28;20480;-50
2022/01/23 12:47:18;;;;;;;29.23;15.40;;;;;;;11.08;62.58;103646.00;5124800;28;20451;-46
2022/01/23 12:49:53;;;;;;;26.65;16.20;;;;;;;11.14;62.21;103654.53;5125117;28;20766;-45
2022/01/23 12:52:25;;;;;;;25.48;17.80;;;;;;;11.13;62.18;103648.41;5119265;28;20447;-44
2022/01/23 12:55:01;;;;;;;26.85;15.65;;;;;;;11.07;62.37;103646.94;5132227;28;20446;-50
2022/01/23 12:57:38;;;;;;;28.08;16.00;;;;;;;10.98;62.24;103643.94;5128876;28;20439;-43
2022/01/23 13:00:16;;;;;;;31.70;15.60;;;;;;;10.94;62.39;103642.44;5134362;28;20418;-45
2022/01/23 13:02:51;;;;;;;26.38;16.98;;;;;;;10.90;62.24;103647.03;5132514;28;20448;-48
2022/01/23 13:05:24;;;;;;;28.10;17.52;;;;;;;10.92;62.28;103645.13;5122047;28;20824;-47
2022/01/23 13:08:08;;;;;;;28.30;16.90;;;;;;;10.92;62.24;103647.78;5127105;28;20833;-45
2022/01/23 13:11:10;;;;;;;35.60;18.05;;;;;;;10.82;62.21;103634.22;5121708;28;21359;-49
2022/01/23 13:13:49;;;;;;;32.13;17.88;;;;;;;10.88;62.27;103646.25;5124248;28;20422;-50
2022/01/23 13:16:30;;;;;;;29.80;17.58;;;;;;;10.85;62.18;103630.56;5125621;28;20431;-52
2022/01/23 13:19:45;;;;;;;31.48;18.27;;;;;;;10.82;62.15;103634.22;5128226;28;20426;-48
2022/01/23 13:29:05;;;;;;;27.27;19.67;;;;;;;10.80;62.04;103629.94;5127139;28;20866;-46
2022/01/23 13:31:19;;;;;;;34.20;20.35;;;;;;;10.81;62.15;103626.38;5121459;28;20438;-46
2022/01/23 13:33:51;;;;;;;29.92;20.65;;;;;;;10.77;62.24;103627.47;5126115;28;20767;-49
2022/01/23 13:36:23;;;;;;;31.42;20.33;;;;;;;10.69;62.11;103627.03;5127767;28;20482;-46
2022/01/23 13:38:56;;;;;;;23.05;15.10;;;;;;;10.72;62.29;103621.59;5121610;28;20521;-46
2022/01/23 13:42:20;;;;;;;29.35;17.67;;;;;;;10.71;62.25;103619.84;5118460;28;20909;-45
2022/01/23 13:48:50;;;;;;;32.78;21.23;;;;;;;10.80;62.07;103622.00;5130376;28;20778;-48
2022/01/23 13:51:35;;;;;;;26.02;18.85;;;;;;;10.77;62.02;103619.53;5123849;28;20413;-48
2022/01/23 14:00:06;;;;;;;24.98;17.40;;;;;;;10.77;61.90;103615.09;5125072;28;20420;-50
2022/01/23 14:02:44;;;;;;;23.80;16.33;;;;;;;10.69;62.13;103632.31;5130379;28;20508;-49
2022/01/23 14:05:19;;;;;;;24.35;16.67;;;;;;;10.65;62.10;103618.38;5132397;28;20804;-45
2022/01/23 14:07:54;;;;;;;22.88;16.30;;;;;;;10.66;62.11;103628.06;5132352;28;20441;-47
2022/01/23 14:10:32;;;;;;;24.95;17.23;;;;;;;10.68;61.85;103620.03;5127808;28;20421;-45
2022/01/23 14:13:14;;;;;;;28.45;17.30;;;;;;;10.71;61.83;103618.06;5129604;28;20419;-47
2022/01/23 14:15:51;;;;;;;22.42;15.80;;;;;;;10.58;61.80;103598.53;5133031;28;20427;-46
2022/01/23 14:18:27;;;;;;;22.48;15.07;;;;;;;10.77;61.62;103619.53;5133613;28;20420;-46
2022/01/23 14:21:02;;;;;;;19.00;14.95;;;;;;;10.81;61.51;103621.09;5125902;28;20488;-46
2022/01/23 14:23:36;;;;;;;23.63;15.33;;;;;;;10.82;61.54;103618.34;5134386;28;20783;-46
2022/01/23 14:26:13;;;;;;;27.70;15.50;;;;;;;10.57;61.47;103616.19;5128036;28;20424;-46
2022/01/23 14:28:50;;;;;;;20.85;14.25;;;;;;;10.76;61.53;103613.38;5130966;28;20442;-48
2022/01/23 14:31:35;;;;;;;25.80;14.77;;;;;;;10.75;61.45;103610.84;5139999;28;20514;-48
2022/01/23 14:34:23;;;;;;;22.52;14.57;;;;;;;10.78;61.49;103623.91;5133171;28;20515;-45
2022/01/23 14:36:58;;;;;;;22.58;15.57;;;;;;;10.81;61.18;103605.22;5128079;28;20788;-46
2022/01/23 14:39:31;;;;;;;24.50;15.40;;;;;;;10.87;61.08;103609.31;5130031;28;20501;-47